Aérodrome :
LOGIN :

S'inscrire | Disclaimer

   EN    FR    IT 

 










Légende :    VFR   VFR Marginal   IFR   IFR Intensif   IFR Très Intensif
Visi : 
Plafond : 
>= 8 km
>= 3000ft
5 à 8 km
1000 à 3000 ft
1500m à 5 km
500 à 1000 ft
800 à 1500m
200 à 500 ft
< 800m
< 200 ft
Symboles :   Orages  Brouillard  Fortes neiges  Fortes précipitations  Vent > 20 kt
SIGMETs :   Divers  Orages  Givrage  Turbulence  Onde Orograph.  Cendres Volcan.







- Altitude de l'aérodrome : 645 ft
- Code IATA : DLE
- Voir les cartes d'approche


LFGJ - Dole Tavaux

DERNIER METAR :
  • 181930Z AUTO 20018KT CAVOK 09/02 Q1017 TEMPO 20022G35KT

METARs EXPIRÉS :
  • 181900Z AUTO 19012KT CAVOK 07/03 Q1017 TEMPO 20022G35KT
  • 181830Z AUTO 15005KT 110V170 CAVOK 02/01 Q1017 TEMPO 20022G35KT
  • 181800Z AUTO 14005KT 8000 NSC 01/M00 Q1017 BECMG 19020G30KT
  • 181730Z AUTO 11005KT 4500 BR NSC 01/01 Q1017 BECMG 19020G30KT 9999 NSW
  • 181700Z AUTO 06003KT 4200 BR NSC 02/01 Q1017 BECMG 19020G30KT 9999 NSW
  • 181630Z AUTO VRB03KT 3600 BR NSC 02/01 Q1017 BECMG 19020G30KT 9999 NSW

TAF AMD TAF LFGJ
Valide du 18 à 17h jusqu'au 19 à 00h UTC


181752Z 1817/1824 19010KT 8000 NSC
BECMG 1818/1820 19020G30KT CAVOK
PROB40
TEMPO 1820/1824 20022G35KT
Pas de NOTAMs connus pour ce terrain.



MET'MAP, la Météo Aéronautique d'un coup d'oeil ! - Copyright ORBIFLY Décembre 2007 - Disclaimer

ORBIFLY MET'MAP TEAM :

Programmation & Développement : Alexandra Zaïnal
Conception & Développement : Baudouin d'Aumeries
Co-Programmation & Développement : Marc-Olivier Méhu
Soutien technique & logistique : Manuel Goepfert

Contact : metmap@orbifly.com




SOURCES & CREDITS :

   NOAA